< < Back
Terminal Aerodrome Forecast


Current Version              Previous Versions:   1  2  3  4  5  6  7  8  9  

Terminal Aerodrome Forecast

970
FTUS44 KMOB 012340
TAFPNS
TAF
KPNS 012340Z 0200/0224 15008KT P6SM VCSH FEW012 SCT070 BKN140
     FM020600 14005KT 5SM BR BKN010
     FM021500 15007KT P6SM VCTS BKN015CB
     FM021700 18011KT P6SM VCTS BKN025CB=



Latest METAR

954
SAUS70 KWBC 020100 RRA
MTRPNS
METAR KPNS 020053Z 16012KT 10SM CLR 24/22 A2996 RMK AO2 SLP147
T02440222


USA.gov is the U.S. government's official web portal to all federal, state and local government web resources and services.